Terminal Aerodrome Forecast
Issued by NWS Wilmington, NC

Home | Current Version | Previous Version | Text Only | Print | Product List | Glossary On
Versions: 1 2 3 4 5 6 7 8 9 10 11 12 13 14 15
717
FTUS42 KILM 061721
TAFMYR
TAF
KMYR 061721Z 0618/0718 33004KT 2SM BR OVC007
     FM062100 23006KT 4SM BR BKN010
     FM070000 26009KT 4SM BR OVC004
     FM070500 31005KT 2SM BR BKN250
     FM071500 35006KT P6SM BKN250=

USA.gov is the U.S. government's official web portal to all federal, state and local government web resources and services.